Time;durP1;ratioP1;P1;durP2;ratioP2;P2;SDS_P1;SDS_P2;PMS_P1;PMS_P2;Temp;Humidity;BMP_temperature;BMP_pressure;BME280_temperature;BME280_humidity;BME280_pressure;Samples;Min_cycle;Max_cycle;Signal;HPM_P1;HPM_P2
2021/09/20 00:00:01;;;;;;;11.55;10.07;;;;;;;;;;5098294;28;20089;-84
2021/09/20 00:02:27;;;;;;;13.73;9.82;;;;;;;;;;5098486;28;20028;-83
2021/09/20 00:04:53;;;;;;;11.07;9.48;;;;;;;;;;5098412;28;20028;-84
2021/09/20 00:07:19;;;;;;;10.50;9.38;;;;;;;;;;5098160;28;20425;-82
2021/09/20 00:09:45;;;;;;;12.18;9.65;;;;;;;;;;5098291;28;20114;-82
2021/09/20 00:12:13;;;;;;;10.48;8.48;;;;;;;;;;5097935;28;20028;-82
2021/09/20 00:14:39;;;;;;;11.65;10.48;;;;;;;;;;5098126;28;20032;-84
2021/09/20 00:17:05;;;;;;;10.50;9.48;;;;;;;;;;5098069;28;20578;-84
2021/09/20 00:19:31;;;;;;;10.32;9.30;;;;;;;;;;5097907;28;20051;-84
2021/09/20 00:21:57;;;;;;;12.20;9.15;;;;;;;;;;5097641;28;20081;-82
2021/09/20 00:24:23;;;;;;;10.95;9.85;;;;;;;;;;5097875;28;20024;-85
2021/09/20 00:26:49;;;;;;;11.18;9.55;;;;;;;;;;5097927;28;20077;-86
2021/09/20 00:29:15;;;;;;;11.07;9.95;;;;;;;;;;5097917;28;20031;-85
2021/09/20 00:31:41;;;;;;;12.10;10.82;;;;;;;;;;5098126;28;20028;-86
2021/09/20 00:34:07;;;;;;;15.73;9.02;;;;;;;;;;5097593;28;20423;-86
2021/09/20 00:36:33;;;;;;;10.00;9.00;;;;;;;;;;5097815;28;20024;-85
2021/09/20 00:38:59;;;;;;;10.27;9.15;;;;;;;;;;5097398;28;20127;-84
2021/09/20 00:41:25;;;;;;;10.43;9.52;;;;;;;;;;5097622;28;20027;-85
2021/09/20 00:43:52;;;;;;;11.90;8.55;;;;;;;;;;5097603;28;20064;-83
2021/09/20 00:46:18;;;;;;;13.00;9.85;;;;;;;;;;5097210;28;20465;-83
2021/09/20 00:48:44;;;;;;;12.18;9.13;;;;;;;;;;5097869;28;20020;-83
2021/09/20 00:51:10;;;;;;;10.60;8.82;;;;;;;;;;5097663;28;20024;-83
2021/09/20 00:53:36;;;;;;;10.70;9.57;;;;;;;;;;5097288;28;20063;-82
2021/09/20 00:56:02;;;;;;;10.82;8.57;;;;;;;;;;5097052;28;20056;-83
2021/09/20 00:58:28;;;;;;;8.93;8.10;;;;;;;;;;5097834;28;20489;-83
2021/09/20 01:00:54;;;;;;;12.35;9.10;;;;;;;;;;5097398;28;20469;-83
2021/09/20 01:03:20;;;;;;;9.68;8.68;;;;;;;;;;5097287;28;20140;-82
2021/09/20 01:05:46;;;;;;;9.18;8.18;;;;;;;;;;5097248;28;20031;-82
2021/09/20 01:08:12;;;;;;;12.60;9.75;;;;;;;;;;5097076;28;20361;-82
2021/09/20 01:10:38;;;;;;;11.10;9.55;;;;;;;;;;5096695;28;20028;-82
2021/09/20 01:13:04;;;;;;;9.90;8.48;;;;;;;;;;5097193;28;20031;-82
2021/09/20 01:15:30;;;;;;;8.88;7.97;;;;;;;;;;5096978;28;20085;-82
2021/09/20 01:17:56;;;;;;;10.68;8.15;;;;;;;;;;5096955;28;20508;-82
2021/09/20 01:20:22;;;;;;;9.18;8.27;;;;;;;;;;5096589;28;20378;-84
2021/09/20 01:22:51;;;;;;;10.40;8.98;;;;;;;;;;5097055;28;20415;-83
2021/09/20 01:25:17;;;;;;;11.63;9.00;;;;;;;;;;5096516;28;20381;-83
2021/09/20 01:27:43;;;;;;;9.27;7.72;;;;;;;;;;5096856;28;20028;-83
2021/09/20 01:30:09;;;;;;;9.68;8.60;;;;;;;;;;5096578;28;20024;-84
2021/09/20 01:32:35;;;;;;;9.40;8.57;;;;;;;;;;5096515;28;20028;-83
2021/09/20 01:35:01;;;;;;;9.85;8.95;;;;;;;;;;5096875;28;20039;-84
2021/09/20 01:37:27;;;;;;;10.43;9.10;;;;;;;;;;5096575;28;20535;-84
2021/09/20 01:39:53;;;;;;;10.07;9.02;;;;;;;;;;5096346;28;20469;-84
2021/09/20 01:42:19;;;;;;;9.18;8.27;;;;;;;;;;5096413;28;20024;-82
2021/09/20 01:44:45;;;;;;;8.43;7.57;;;;;;;;;;5096429;28;20038;-79
2021/09/20 01:47:11;;;;;;;9.95;8.90;;;;;;;;;;5096841;28;20462;-79
2021/09/20 01:49:38;;;;;;;9.60;8.60;;;;;;;;;;5096327;28;20065;-79
2021/09/20 01:52:04;;;;;;;10.70;8.52;;;;;;;;;;5095772;28;20024;-80
2021/09/20 01:54:30;;;;;;;10.20;8.63;;;;;;;;;;5095765;28;20028;-79
2021/09/20 01:56:56;;;;;;;10.40;8.73;;;;;;;;;;5096254;28;20131;-79
2021/09/20 01:59:22;;;;;;;9.15;8.32;;;;;;;;;;5096273;28;20028;-79
2021/09/20 02:01:49;;;;;;;9.50;8.60;;;;;;;;;;5096127;28;20458;-79
2021/09/20 02:04:15;;;;;;;9.45;8.48;;;;;;;;;;5096078;28;20065;-79
2021/09/20 02:06:41;;;;;;;9.00;7.90;;;;;;;;;;5095983;28;20028;-79
2021/09/20 02:09:10;;;;;;;8.93;8.02;;;;;;;;;;5095785;28;20106;-79
2021/09/20 02:11:36;;;;;;;9.82;8.93;;;;;;;;;;5096025;28;20035;-79
2021/09/20 02:14:02;;;;;;;7.85;7.07;;;;;;;;;;5095408;28;20020;-79
2021/09/20 02:16:28;;;;;;;8.40;7.60;;;;;;;;;;5096334;28;20480;-79
2021/09/20 02:18:54;;;;;;;9.93;8.27;;;;;;;;;;5095002;28;20384;-79
2021/09/20 02:21:20;;;;;;;8.40;7.60;;;;;;;;;;5095918;28;20038;-79
2021/09/20 02:23:46;;;;;;;13.77;7.95;;;;;;;;;;5095621;28;20024;-79
2021/09/20 02:26:12;;;;;;;10.15;8.88;;;;;;;;;;5095422;28;20488;-79
2021/09/20 02:28:39;;;;;;;12.70;8.82;;;;;;;;;;5095711;28;20453;-79
2021/09/20 02:31:05;;;;;;;10.20;8.38;;;;;;;;;;5095336;28;20103;-79
2021/09/20 02:33:32;;;;;;;8.20;7.40;;;;;;;;;;5095608;28;20105;-79
2021/09/20 02:35:58;;;;;;;8.00;7.30;;;;;;;;;;5095361;28;20020;-80
2021/09/20 02:38:24;;;;;;;9.50;8.07;;;;;;;;;;5095064;28;20031;-80
2021/09/20 02:40:50;;;;;;;8.45;7.65;;;;;;;;;;5095504;28;20124;-79
2021/09/20 02:43:16;;;;;;;8.05;7.25;;;;;;;;;;5095239;28;20024;-79
2021/09/20 02:45:42;;;;;;;7.90;7.10;;;;;;;;;;5095437;28;20674;-79
2021/09/20 02:48:08;;;;;;;9.60;8.00;;;;;;;;;;5094886;28;20485;-80
2021/09/20 02:50:34;;;;;;;12.45;7.13;;;;;;;;;;5094996;28;20038;-79
2021/09/20 02:53:00;;;;;;;9.70;7.80;;;;;;;;;;5094798;28;20024;-79
2021/09/20 02:55:26;;;;;;;8.98;8.07;;;;;;;;;;5095553;28;20374;-79
2021/09/20 02:57:52;;;;;;;8.10;7.07;;;;;;;;;;5094642;28;20068;-79
2021/09/20 03:00:18;;;;;;;9.40;7.85;;;;;;;;;;5094791;28;20036;-80
2021/09/20 03:02:45;;;;;;;9.02;8.10;;;;;;;;;;5095323;28;20024;-79
2021/09/20 03:05:11;;;;;;;8.80;8.00;;;;;;;;;;5095282;28;20028;-79
2021/09/20 03:07:37;;;;;;;8.65;7.85;;;;;;;;;;5094521;28;20069;-79
2021/09/20 03:10:03;;;;;;;10.05;9.13;;;;;;;;;;5094619;28;20027;-80
2021/09/20 03:12:29;;;;;;;9.75;7.65;;;;;;;;;;5094792;28;20031;-79
2021/09/20 03:14:55;;;;;;;11.65;7.78;;;;;;;;;;5094959;28;20032;-79
2021/09/20 03:17:21;;;;;;;9.30;8.40;;;;;;;;;;5094649;28;20477;-78
2021/09/20 03:19:47;;;;;;;11.80;8.27;;;;;;;;;;5094447;28;20032;-79
2021/09/20 03:22:13;;;;;;;9.30;8.40;;;;;;;;;;5094364;28;20132;-79
2021/09/20 03:24:39;;;;;;;9.98;8.35;;;;;;;;;;5095271;28;20465;-79
2021/09/20 03:27:06;;;;;;;9.43;8.13;;;;;;;;;;5094346;28;20485;-79
2021/09/20 03:29:32;;;;;;;13.70;10.18;;;;;;;;;;5093597;28;20082;-79
2021/09/20 03:31:58;;;;;;;9.52;8.52;;;;;;;;;;5094436;28;20028;-80
2021/09/20 03:34:24;;;;;;;9.10;8.27;;;;;;;;;;5094299;28;20024;-79
2021/09/20 03:36:50;;;;;;;9.95;8.75;;;;;;;;;;5094112;28;20020;-79
2021/09/20 03:39:16;;;;;;;8.65;7.78;;;;;;;;;;5094468;28;20036;-79
2021/09/20 03:41:42;;;;;;;10.50;9.48;;;;;;;;;;5094313;28;20024;-80
2021/09/20 03:44:08;;;;;;;10.23;9.10;;;;;;;;;;5094234;28;20040;-80
2021/09/20 03:46:34;;;;;;;9.52;8.35;;;;;;;;;;5094218;28;20103;-80
2021/09/20 03:49:00;;;;;;;10.43;9.30;;;;;;;;;;5094633;28;20028;-79
2021/09/20 03:51:26;;;;;;;10.27;8.50;;;;;;;;;;5094214;28;20035;-79
2021/09/20 03:53:52;;;;;;;9.85;8.85;;;;;;;;;;5094298;28;20489;-79
2021/09/20 03:56:18;;;;;;;11.52;10.38;;;;;;;;;;5094112;28;20052;-79
2021/09/20 03:58:44;;;;;;;10.65;8.73;;;;;;;;;;5094026;28;20024;-79
2021/09/20 04:01:10;;;;;;;10.02;9.00;;;;;;;;;;5094180;28;20036;-79
2021/09/20 04:03:37;;;;;;;11.15;9.93;;;;;;;;;;5094210;28;20024;-79
2021/09/20 04:06:03;;;;;;;10.68;9.63;;;;;;;;;;5094032;28;20495;-79
2021/09/20 04:08:29;;;;;;;10.73;9.73;;;;;;;;;;5094852;28;20024;-80
2021/09/20 04:10:57;;;;;;;10.88;9.70;;;;;;;;;;5093934;28;20407;-79
2021/09/20 04:13:23;;;;;;;11.48;10.38;;;;;;;;;;5094840;28;20074;-79
2021/09/20 04:15:53;;;;;;;10.93;9.93;;;;;;;;;;5094304;28;20024;-79
2021/09/20 04:18:19;;;;;;;9.43;8.52;;;;;;;;;;5093957;28;20058;-79
2021/09/20 04:20:45;;;;;;;11.45;10.25;;;;;;;;;;5093747;28;20032;-79
2021/09/20 04:23:11;;;;;;;11.55;10.45;;;;;;;;;;5094036;28;20020;-79
2021/09/20 04:25:37;;;;;;;10.30;9.30;;;;;;;;;;5094351;28;20024;-79
2021/09/20 04:28:03;;;;;;;10.73;9.73;;;;;;;;;;5093800;28;20548;-78
2021/09/20 04:30:29;;;;;;;13.93;10.82;;;;;;;;;;5094040;28;20347;-79
2021/09/20 04:32:56;;;;;;;10.38;9.13;;;;;;;;;;5094126;28;20031;-79
2021/09/20 04:35:22;;;;;;;11.73;10.68;;;;;;;;;;5094025;28;20025;-80
2021/09/20 04:37:48;;;;;;;12.02;10.68;;;;;;;;;;5094006;28;20473;-80
2021/09/20 04:40:14;;;;;;;12.88;9.35;;;;;;;;;;5093662;28;20496;-79
2021/09/20 04:42:40;;;;;;;10.07;9.07;;;;;;;;;;5097461;28;20115;-79
2021/09/20 04:45:06;;;;;;;11.02;9.98;;;;;;;;;;5097587;28;20111;-79
2021/09/20 04:47:32;;;;;;;11.93;9.68;;;;;;;;;;5097304;28;20107;-79
2021/09/20 04:49:58;;;;;;;11.27;10.18;;;;;;;;;;5097207;28;20032;-80
2021/09/20 04:52:24;;;;;;;12.02;10.73;;;;;;;;;;5097309;28;20024;-79
2021/09/20 04:54:51;;;;;;;12.50;11.20;;;;;;;;;;5097829;28;20028;-79
2021/09/20 04:57:17;;;;;;;12.05;9.70;;;;;;;;;;5097259;28;20102;-79
2021/09/20 04:59:43;;;;;;;14.77;11.48;;;;;;;;;;5095871;28;20024;-80
2021/09/20 05:02:09;;;;;;;16.45;12.93;;;;;;;;;;5097006;28;20048;-80
2021/09/20 05:04:36;;;;;;;21.52;12.82;;;;;;;;;;5096980;28;20389;-81
2021/09/20 05:07:02;;;;;;;14.85;11.93;;;;;;;;;;5096722;28;20028;-83
2021/09/20 05:09:28;;;;;;;16.85;11.90;;;;;;;;;;5095988;28;20028;-79
2021/09/20 05:11:54;;;;;;;13.25;11.45;;;;;;;;;;5096983;28;20028;-77
2021/09/20 05:14:20;;;;;;;17.27;12.55;;;;;;;;;;5096664;28;20111;-84
2021/09/20 05:16:46;;;;;;;37.90;13.32;;;;;;;;;;5096551;28;20465;-79
2021/09/20 05:19:12;;;;;;;13.52;11.88;;;;;;;;;;5096258;28;20496;-76
2021/09/20 05:21:38;;;;;;;15.98;11.48;;;;;;;;;;5096235;28;20035;-77
2021/09/20 05:24:04;;;;;;;14.88;10.98;;;;;;;;;;5095981;28;20031;-78
2021/09/20 05:26:30;;;;;;;10.65;9.75;;;;;;;;;;5096403;28;20189;-80
2021/09/20 05:28:56;;;;;;;19.40;10.20;;;;;;;;;;5096716;28;20024;-81
2021/09/20 05:31:22;;;;;;;14.15;10.95;;;;;;;;;;5096623;28;20020;-78
2021/09/20 05:33:48;;;;;;;14.25;11.07;;;;;;;;;;5095948;28;20024;-78
2021/09/20 05:36:14;;;;;;;10.75;9.68;;;;;;;;;;5095773;28;20461;-78
2021/09/20 05:38:40;;;;;;;14.05;10.50;;;;;;;;;;5096260;28;20385;-78
2021/09/20 05:41:08;;;;;;;19.30;11.23;;;;;;;;;;5096536;28;20033;-78
2021/09/20 05:43:34;;;;;;;17.75;10.10;;;;;;;;;;5096158;28;20031;-78
2021/09/20 05:46:00;;;;;;;17.45;9.23;;;;;;;;;;5094694;28;20377;-80
2021/09/20 05:48:26;;;;;;;11.52;10.18;;;;;;;;;;5095010;28;20028;-79
2021/09/20 05:50:52;;;;;;;15.43;10.45;;;;;;;;;;5095417;28;20084;-79
2021/09/20 05:53:18;;;;;;;13.45;10.40;;;;;;;;;;5095130;28;20489;-78
2021/09/20 05:55:44;;;;;;;11.27;10.13;;;;;;;;;;5096188;28;20016;-79
2021/09/20 05:58:10;;;;;;;10.63;9.52;;;;;;;;;;5095577;28;20623;-78
2021/09/20 06:00:36;;;;;;;10.32;9.27;;;;;;;;;;5095850;28;20059;-78
2021/09/20 06:03:02;;;;;;;10.75;9.68;;;;;;;;;;5092698;28;20027;-80
2021/09/20 06:05:30;;;;;;;10.38;9.43;;;;;;;;;;5094938;28;20700;-78
2021/09/20 06:07:56;;;;;;;12.43;11.20;;;;;;;;;;5095651;28;20016;-78
2021/09/20 06:10:22;;;;;;;11.32;10.05;;;;;;;;;;5095458;28;20020;-78
2021/09/20 06:12:48;;;;;;;12.50;11.18;;;;;;;;;;5095154;28;20024;-79
2021/09/20 06:15:14;;;;;;;10.75;9.55;;;;;;;;;;5095384;28;20020;-78
2021/09/20 06:17:41;;;;;;;11.93;8.88;;;;;;;;;;5095240;28;20032;-79
2021/09/20 06:20:07;;;;;;;10.93;9.82;;;;;;;;;;5094954;28;20082;-78
2021/09/20 06:22:34;;;;;;;9.93;8.95;;;;;;;;;;5094991;28;20054;-78
2021/09/20 06:25:01;;;;;;;9.73;8.77;;;;;;;;;;5095475;28;20081;-78
2021/09/20 06:27:27;;;;;;;11.63;9.45;;;;;;;;;;5095190;28;20049;-78
2021/09/20 06:29:53;;;;;;;11.10;9.73;;;;;;;;;;5094669;28;20456;-78
2021/09/20 06:32:19;;;;;;;12.10;10.90;;;;;;;;;;5094504;28;20026;-79
2021/09/20 06:34:45;;;;;;;16.63;9.55;;;;;;;;;;5094769;28;20027;-79
2021/09/20 06:37:11;;;;;;;16.52;10.30;;;;;;;;;;5095174;28;20036;-80
2021/09/20 06:39:37;;;;;;;12.40;11.05;;;;;;;;;;5094801;28;20024;-79
2021/09/20 06:42:05;;;;;;;12.98;11.60;;;;;;;;;;5095497;28;20024;-78
2021/09/20 06:44:31;;;;;;;17.52;13.52;;;;;;;;;;5097813;28;20027;-79
2021/09/20 06:46:57;;;;;;;14.45;13.02;;;;;;;;;;5097862;28;20020;-76
2021/09/20 06:49:24;;;;;;;22.88;14.35;;;;;;;;;;5097754;28;20681;-77
2021/09/20 06:51:51;;;;;;;15.32;13.27;;;;;;;;;;5098124;28;20028;-78
2021/09/20 06:54:17;;;;;;;16.75;14.98;;;;;;;;;;5096885;28;20079;-81
2021/09/20 06:56:44;;;;;;;29.23;15.38;;;;;;;;;;5096250;28;20052;-80
2021/09/20 06:59:11;;;;;;;15.57;13.98;;;;;;;;;;5097064;28;20027;-78
2021/09/20 07:01:37;;;;;;;23.27;17.08;;;;;;;;;;5097697;28;20119;-79
2021/09/20 07:04:04;;;;;;;22.33;17.15;;;;;;;;;;5097214;28;20035;-78
2021/09/20 07:06:30;;;;;;;21.75;16.75;;;;;;;;;;5097956;28;20470;-79
2021/09/20 07:08:56;;;;;;;17.35;15.15;;;;;;;;;;5097589;28;20385;-75
2021/09/20 07:11:22;;;;;;;15.60;14.02;;;;;;;;;;5097315;28;20028;-80
2021/09/20 07:13:48;;;;;;;20.48;14.50;;;;;;;;;;5097940;28;20044;-79
2021/09/20 07:16:14;;;;;;;22.85;16.08;;;;;;;;;;5097932;28;20474;-80
2021/09/20 07:18:40;;;;;;;19.45;14.60;;;;;;;;;;5097658;28;20062;-79
2021/09/20 07:21:06;;;;;;;20.95;14.65;;;;;;;;;;5097976;28;20028;-87
2021/09/20 07:23:32;;;;;;;17.95;14.95;;;;;;;;;;5097141;28;20028;-78
2021/09/20 07:25:59;;;;;;;16.65;13.75;;;;;;;;;;5092752;28;20031;-78
2021/09/20 07:28:25;;;;;;;17.40;14.73;;;;;;;;;;5092937;28;20023;-79
2021/09/20 07:30:51;;;;;;;15.85;13.38;;;;;;;;;;5093560;28;20035;-80
2021/09/20 07:33:17;;;;;;;14.82;13.30;;;;;;;;;;5094510;28;20527;-78
2021/09/20 07:35:43;;;;;;;15.90;13.75;;;;;;;;;;5094205;28;20031;-79
2021/09/20 07:38:09;;;;;;;14.18;12.68;;;;;;;;;;5093967;28;20020;-79
2021/09/20 07:40:35;;;;;;;20.23;13.55;;;;;;;;;;5094657;28;20040;-79
2021/09/20 07:43:01;;;;;;;18.73;13.27;;;;;;;;;;5094591;28;20089;-78
2021/09/20 07:45:27;;;;;;;16.83;14.40;;;;;;;;;;5094633;28;20032;-78
2021/09/20 07:47:53;;;;;;;15.07;12.50;;;;;;;;;;5094120;28;20374;-79
2021/09/20 07:50:20;;;;;;;18.08;14.20;;;;;;;;;;5094110;28;20073;-76
2021/09/20 07:52:46;;;;;;;17.58;14.60;;;;;;;;;;5094237;28;20027;-76
2021/09/20 07:55:13;;;;;;;15.63;14.02;;;;;;;;;;5094309;28;20065;-76
2021/09/20 07:57:39;;;;;;;15.18;12.35;;;;;;;;;;5093770;28;20056;-75
2021/09/20 08:00:05;;;;;;;16.85;12.40;;;;;;;;;;5093975;28;20032;-76
2021/09/20 08:02:31;;;;;;;15.52;13.90;;;;;;;;;;5093892;28;20518;-76
2021/09/20 08:04:57;;;;;;;14.10;12.30;;;;;;;;;;5094179;28;20384;-76
2021/09/20 08:07:24;;;;;;;14.80;11.70;;;;;;;;;;5094784;28;20027;-77
2021/09/20 08:09:50;;;;;;;13.52;12.23;;;;;;;;;;5094110;28;20034;-77
2021/09/20 08:12:16;;;;;;;17.38;13.13;;;;;;;;;;5093947;28;20372;-77
2021/09/20 08:14:42;;;;;;;12.93;11.63;;;;;;;;;;5094028;28;20057;-77
2021/09/20 08:17:09;;;;;;;14.65;12.55;;;;;;;;;;5096846;28;20140;-77
2021/09/20 08:19:35;;;;;;;13.27;11.98;;;;;;;;;;5097883;28;20089;-77
2021/09/20 08:22:01;;;;;;;12.85;11.50;;;;;;;;;;5097746;28;20103;-78
2021/09/20 08:24:27;;;;;;;11.20;10.13;;;;;;;;;;5098233;28;20461;-77
2021/09/20 08:26:53;;;;;;;12.73;10.52;;;;;;;;;;5098011;28;20465;-78
2021/09/20 08:29:19;;;;;;;12.80;11.50;;;;;;;;;;5100452;28;20055;-81
2021/09/20 08:31:45;;;;;;;13.85;12.45;;;;;;;;;;5100386;28;20028;-79
2021/09/20 08:34:11;;;;;;;12.38;10.38;;;;;;;;;;5100602;28;20028;-87
2021/09/20 08:36:37;;;;;;;13.93;10.02;;;;;;;;;;5100128;28;20036;-78
2021/09/20 08:39:04;;;;;;;10.63;9.45;;;;;;;;;;5100364;28;20020;-78
2021/09/20 08:41:30;;;;;;;13.38;10.05;;;;;;;;;;5100543;28;20023;-79
2021/09/20 08:43:56;;;;;;;12.52;9.57;;;;;;;;;;5100474;28;20020;-82
2021/09/20 08:46:22;;;;;;;9.65;8.70;;;;;;;;;;5099462;28;20084;-79
2021/09/20 08:48:48;;;;;;;9.88;8.98;;;;;;;;;;5100573;28;20032;-82
2021/09/20 08:51:17;;;;;;;10.88;9.85;;;;;;;;;;5100516;28;20377;-82
2021/09/20 08:53:44;;;;;;;17.45;10.10;;;;;;;;;;5100512;28;20373;-79
2021/09/20 08:56:10;;;;;;;9.00;8.10;;;;;;;;;;5100312;28;20491;-81
2021/09/20 08:58:36;;;;;;;9.18;8.38;;;;;;;;;;5099520;28;20027;-80
2021/09/20 09:01:02;;;;;;;12.27;8.57;;;;;;;;;;5098423;28;20027;-78
2021/09/20 09:03:29;;;;;;;8.55;7.68;;;;;;;;;;5098858;28;20063;-79
2021/09/20 09:05:55;;;;;;;9.27;8.38;;;;;;;;;;5098576;28;20024;-78
2021/09/20 09:08:25;;;;;;;9.27;8.48;;;;;;;;;;5097723;28;20067;-81
2021/09/20 09:11:12;;;;;;;10.77;8.80;;;;;;;;;;5098620;28;20020;-83
2021/09/20 09:13:41;;;;;;;8.98;7.40;;;;;;;;;;5097756;28;20039;-82
2021/09/20 09:16:15;;;;;;;9.68;6.70;;;;;;;;;;5099371;28;20473;-83
2021/09/20 09:19:02;;;;;;;7.35;6.65;;;;;;;;;;5099785;28;20103;-83
2021/09/20 09:21:29;;;;;;;8.07;5.95;;;;;;;;;;5099315;28;20067;-83
2021/09/20 09:23:59;;;;;;;6.47;5.80;;;;;;;;;;5099592;28;20484;-84
2021/09/20 09:26:25;;;;;;;5.75;5.25;;;;;;;;;;5100915;28;20024;-88
2021/09/20 09:28:53;;;;;;;5.80;5.30;;;;;;;;;;5098379;28;20477;-77
2021/09/20 09:31:19;;;;;;;6.55;5.95;;;;;;;;;;5099321;28;20020;-78
2021/09/20 09:33:45;;;;;;;8.73;6.22;;;;;;;;;;5098323;28;20024;-83
2021/09/20 09:36:14;;;;;;;6.80;6.18;;;;;;;;;;5099103;28;20088;-78
2021/09/20 09:39:00;;;;;;;9.98;5.47;;;;;;;;;;5097325;28;20048;-82
2021/09/20 09:41:42;;;;;;;6.80;4.80;;;;;;;;;;5098370;28;20423;-81
2021/09/20 09:44:12;;;;;;;6.30;4.78;;;;;;;;;;5098047;28;20030;-76
2021/09/20 09:46:39;;;;;;;5.97;5.38;;;;;;;;;;5095871;28;20024;-81
2021/09/20 09:49:13;;;;;;;6.82;4.88;;;;;;;;;;5096558;28;20343;-80
2021/09/20 09:51:59;;;;;;;7.28;5.22;;;;;;;;;;5096018;28;20063;-80
2021/09/20 09:54:26;;;;;;;8.32;4.95;;;;;;;;;;5094763;28;20024;-79
2021/09/20 09:57:10;;;;;;;5.82;4.95;;;;;;;;;;5095890;28;20052;-79
2021/09/20 09:59:36;;;;;;;5.57;5.05;;;;;;;;;;5095982;28;20845;-78
2021/09/20 10:02:15;;;;;;;7.05;5.03;;;;;;;;;;5095595;28;20031;-77
2021/09/20 10:04:48;;;;;;;11.95;6.30;;;;;;;;;;5095346;28;20367;-78
2021/09/20 10:07:14;;;;;;;6.03;5.45;;;;;;;;;;5093742;28;20020;-78
2021/09/20 10:09:40;;;;;;;6.95;5.00;;;;;;;;;;5093817;28;20153;-78
2021/09/20 10:12:07;;;;;;;5.68;5.15;;;;;;;;;;5094375;28;20474;-78
2021/09/20 10:14:33;;;;;;;5.85;5.30;;;;;;;;;;5095742;28;20438;-79
2021/09/20 10:16:59;;;;;;;6.65;5.72;;;;;;;;;;5094605;28;20043;-75
2021/09/20 10:19:25;;;;;;;6.15;5.55;;;;;;;;;;5094793;28;20020;-77
2021/09/20 10:21:51;;;;;;;7.30;6.68;;;;;;;;;;5095040;28;20032;-78
2021/09/20 10:24:17;;;;;;;6.00;5.13;;;;;;;;;;5094792;28;20538;-79
2021/09/20 10:26:44;;;;;;;6.13;5.45;;;;;;;;;;5094651;28;20024;-82
2021/09/20 10:29:11;;;;;;;27.60;6.82;;;;;;;;;;5095223;28;20031;-80
2021/09/20 10:31:38;;;;;;;9.85;5.15;;;;;;;;;;5094997;28;20020;-79
2021/09/20 10:34:24;;;;;;;6.78;5.80;;;;;;;;;;5095589;28;20020;-78
2021/09/20 10:36:52;;;;;;;6.70;6.10;;;;;;;;;;5093312;28;20104;-78
2021/09/20 10:39:19;;;;;;;7.50;6.80;;;;;;;;;;5093582;28;20028;-82
2021/09/20 10:41:45;;;;;;;6.40;5.80;;;;;;;;;;5097141;28;20492;-80
2021/09/20 10:44:11;;;;;;;7.63;6.30;;;;;;;;;;5096198;28;20035;-80
2021/09/20 10:46:38;;;;;;;7.22;6.63;;;;;;;;;;5094467;28;20611;-80
2021/09/20 10:49:05;;;;;;;7.53;6.82;;;;;;;;;;5094468;28;20102;-81
2021/09/20 10:51:37;;;;;;;9.80;7.78;;;;;;;;;;5094830;28;20020;-84
2021/09/20 10:54:12;;;;;;;7.93;7.13;;;;;;;;;;5093929;28;20057;-83
2021/09/20 10:56:39;;;;;;;10.18;7.53;;;;;;;;;;5095191;28;20050;-81
2021/09/20 10:59:13;;;;;;;8.77;7.18;;;;;;;;;;5094399;28;20021;-80
2021/09/20 11:01:39;;;;;;;12.43;8.48;;;;;;;;;;5094058;28;20509;-80
2021/09/20 11:04:15;;;;;;;14.57;8.75;;;;;;;;;;5093745;28;20028;-80
2021/09/20 11:06:43;;;;;;;13.20;9.02;;;;;;;;;;5094434;28;20028;-81
2021/09/20 11:09:29;;;;;;;10.90;9.35;;;;;;;;;;5094313;28;20048;-80
2021/09/20 11:12:03;;;;;;;17.35;9.02;;;;;;;;;;5094279;28;20024;-87
2021/09/20 11:14:45;;;;;;;15.65;8.73;;;;;;;;;;5096288;28;20024;-82
2021/09/20 11:17:31;;;;;;;23.83;9.93;;;;;;;;;;5094553;28;20032;-82
2021/09/20 11:19:59;;;;;;;13.20;9.15;;;;;;;;;;5093500;28;20547;-79
2021/09/20 11:22:26;;;;;;;14.32;8.55;;;;;;;;;;5093081;28;20085;-81
2021/09/20 11:24:54;;;;;;;13.00;8.63;;;;;;;;;;5092832;28;20024;-81
2021/09/20 11:27:24;;;;;;;10.68;7.18;;;;;;;;;;5094909;28;20024;-83
2021/09/20 11:29:51;;;;;;;11.15;7.05;;;;;;;;;;5095472;28;20069;-82
2021/09/20 11:32:18;;;;;;;13.02;6.63;;;;;;;;;;5092095;28;20590;-82
2021/09/20 11:34:52;;;;;;;11.65;5.13;;;;;;;;;;5092889;28;20516;-83
2021/09/20 11:37:23;;;;;;;14.15;6.90;;;;;;;;;;5092970;28;20118;-84
2021/09/20 11:39:50;;;;;;;11.77;5.90;;;;;;;;;;5093199;28;20032;-84
2021/09/20 11:42:17;;;;;;;8.65;6.75;;;;;;;;;;5093571;28;20034;-81
2021/09/20 11:44:47;;;;;;;9.05;7.05;;;;;;;;;;5093897;28;20032;-84
2021/09/20 11:47:15;;;;;;;10.75;7.13;;;;;;;;;;5094004;28;20024;-84
2021/09/20 11:49:41;;;;;;;13.20;8.02;;;;;;;;;;5092991;28;20032;-78
2021/09/20 11:52:07;;;;;;;12.98;8.27;;;;;;;;;;5094685;28;20511;-78
2021/09/20 11:54:36;;;;;;;10.65;8.15;;;;;;;;;;5098222;28;20477;-80
2021/09/20 11:57:09;;;;;;;9.38;8.50;;;;;;;;;;5098267;28;20100;-81
2021/09/20 11:59:36;;;;;;;12.50;9.00;;;;;;;;;;5094809;28;20473;-79
2021/09/20 12:02:29;;;;;;;13.18;8.98;;;;;;;;;;5100834;28;20070;-79
2021/09/20 12:04:56;;;;;;;11.55;8.48;;;;;;;;;;5097360;28;20393;-79
2021/09/20 12:07:26;;;;;;;9.45;7.82;;;;;;;;;;5094772;28;20024;-81
2021/09/20 12:09:52;;;;;;;8.45;7.65;;;;;;;;;;5097968;28;20036;-81
2021/09/20 12:12:18;;;;;;;10.48;9.38;;;;;;;;;;5098195;28;20032;-81
2021/09/20 12:14:55;;;;;;;9.82;8.25;;;;;;;;;;5097512;28;20017;-81
2021/09/20 12:17:21;;;;;;;9.93;8.40;;;;;;;;;;5098357;28;20031;-80
2021/09/20 12:19:54;;;;;;;11.32;8.85;;;;;;;;;;5098380;28;20032;-79
2021/09/20 12:22:20;;;;;;;9.45;8.45;;;;;;;;;;5098904;28;20028;-79
2021/09/20 12:24:47;;;;;;;9.93;7.55;;;;;;;;;;5097000;28;20427;-77
2021/09/20 12:27:13;;;;;;;11.02;7.15;;;;;;;;;;5098132;28;20024;-78
2021/09/20 12:29:39;;;;;;;8.20;7.35;;;;;;;;;;5097462;28;20024;-77
2021/09/20 12:32:05;;;;;;;8.75;7.28;;;;;;;;;;5097235;28;20099;-77
2021/09/20 12:34:34;;;;;;;9.05;7.32;;;;;;;;;;5097067;28;20401;-75
2021/09/20 12:37:02;;;;;;;7.82;7.13;;;;;;;;;;5094392;28;20038;-85
2021/09/20 12:39:30;;;;;;;6.30;4.88;;;;;;;;;;5097543;28;20024;-86
2021/09/20 12:42:03;;;;;;;4.65;4.20;;;;;;;;;;5097711;28;20028;-82
2021/09/20 12:44:48;;;;;;;5.03;4.38;;;;;;;;;;5076883;28;20115;-83
2021/09/20 12:47:15;;;;;;;4.97;4.53;;;;;;;;;;5085903;28;20031;-80
2021/09/20 12:49:41;;;;;;;4.63;4.13;;;;;;;;;;5100154;28;20038;-83
2021/09/20 12:52:27;;;;;;;8.13;3.90;;;;;;;;;;5098415;28;20032;-80
2021/09/20 12:54:53;;;;;;;10.40;4.78;;;;;;;;;;5098974;28;20091;-79
2021/09/20 12:57:22;;;;;;;5.63;4.80;;;;;;;;;;5100261;28;20052;-81
2021/09/20 12:59:59;;;;;;;5.35;4.43;;;;;;;;;;5100502;28;20115;-78
2021/09/20 13:02:25;;;;;;;4.57;4.18;;;;;;;;;;5096406;28;20046;-80
2021/09/20 13:04:55;;;;;;;11.15;4.95;;;;;;;;;;5099317;28;20488;-87
2021/09/20 13:07:22;;;;;;;4.60;3.83;;;;;;;;;;5100305;28;20032;-81
2021/09/20 13:10:08;;;;;;;5.68;4.97;;;;;;;;;;5100365;28;20032;-81
2021/09/20 13:12:35;;;;;;;4.90;4.50;;;;;;;;;;5098490;28;20130;-85
2021/09/20 13:15:01;;;;;;;5.80;5.28;;;;;;;;;;5100186;28;20031;-78
2021/09/20 13:17:36;;;;;;;6.15;5.63;;;;;;;;;;5101065;28;20031;-80
2021/09/20 13:20:08;;;;;;;6.80;5.13;;;;;;;;;;5100279;28;20028;-83
2021/09/20 13:22:45;;;;;;;5.95;5.35;;;;;;;;;;5099094;28;20028;-84
2021/09/20 13:25:28;;;;;;;5.50;5.00;;;;;;;;;;5100768;28;20024;-84
2021/09/20 13:28:10;;;;;;;5.05;4.55;;;;;;;;;;5099221;28;20020;-84
2021/09/20 13:30:37;;;;;;;6.70;5.35;;;;;;;;;;5100224;28;20024;-85
2021/09/20 13:33:04;;;;;;;6.35;4.68;;;;;;;;;;5099170;28;20073;-79
2021/09/20 13:35:33;;;;;;;8.30;5.03;;;;;;;;;;5099271;28;20435;-83
2021/09/20 13:37:59;;;;;;;5.60;4.97;;;;;;;;;;5099021;28;20028;-81
2021/09/20 13:40:25;;;;;;;6.15;5.32;;;;;;;;;;5099255;28;20085;-83
2021/09/20 13:42:52;;;;;;;16.65;9.93;;;;;;;;;;5099388;28;20036;-84
2021/09/20 13:45:18;;;;;;;7.25;6.55;;;;;;;;;;5098966;28;20028;-83
2021/09/20 13:47:44;;;;;;;10.55;9.55;;;;;;;;;;5099149;28;20031;-83
2021/09/20 13:50:10;;;;;;;9.80;8.65;;;;;;;;;;5098743;28;20024;-84
2021/09/20 13:52:37;;;;;;;9.45;7.97;;;;;;;;;;5098760;28;20373;-84
2021/09/20 13:55:03;;;;;;;10.38;7.95;;;;;;;;;;5099188;28;20111;-83
2021/09/20 13:57:29;;;;;;;11.95;9.55;;;;;;;;;;5099788;28;20075;-87
2021/09/20 13:59:57;;;;;;;10.77;9.38;;;;;;;;;;5098677;28;20473;-82
2021/09/20 14:02:23;;;;;;;11.45;8.88;;;;;;;;;;5099067;28;20020;-79
2021/09/20 14:04:49;;;;;;;17.90;10.32;;;;;;;;;;5098761;28;20020;-85
2021/09/20 14:07:15;;;;;;;13.80;9.10;;;;;;;;;;5098405;28;20020;-82
2021/09/20 14:09:41;;;;;;;13.90;9.45;;;;;;;;;;5097704;28;20375;-77
2021/09/20 14:12:07;;;;;;;9.15;7.28;;;;;;;;;;5097521;28;20024;-78
2021/09/20 14:14:33;;;;;;;9.35;8.45;;;;;;;;;;5096769;28;20043;-78
2021/09/20 14:16:59;;;;;;;10.50;7.55;;;;;;;;;;5096365;28;20103;-84
2021/09/20 14:19:25;;;;;;;8.88;6.65;;;;;;;;;;5094522;28;20031;-80
2021/09/20 14:21:52;;;;;;;8.48;7.68;;;;;;;;;;5094680;28;20028;-79
2021/09/20 14:24:18;;;;;;;10.60;7.63;;;;;;;;;;5094159;28;20835;-80
2021/09/20 14:26:44;;;;;;;16.85;9.27;;;;;;;;;;5095281;28;20025;-77
2021/09/20 14:29:10;;;;;;;9.23;8.23;;;;;;;;;;5095239;28;20024;-80
2021/09/20 14:31:36;;;;;;;9.43;8.50;;;;;;;;;;5095229;28;20024;-78